PWSweather.com
Personal Weather Stations
Station Observations
SUBOTICARS
SuboticaYU

SuboticaYU

Lat: 46.1296717, Lon: 19.641551

Elevation: 361

Station Type: Nexus

http://sumeteo.info

High Low Average
Temperature 34.2°F1.2°C 26.8°F-2.9°C 30.8°F-0.7°C
Dew Point 27.1°F-2.7°C 21.3°F-5.9°C 24.7°F-4.1°C
Winds 4.6 mph 7.4 kmh Calm Calm 2.0 mph SSW3.2 kmh SSW
Wind Gusts 6.9 mph11.1 kmh -- 3.0 mph4.8 kmh
Humidity 86% 69% 78%
Pressure 29.85 in1010.8 mb 29.76 in1007.8 mb -
Precipitation 0.03 in0.8 mm - -
Hour Temp Dew Point Humidity Winds Wind Gusts Pressure Precip Precip Rate Daily Precip Total
12:00 AM 31.1°F-0.5°C 26.2°F-3.2°C 82% 2.3 mph WNW3.7 kmh WNW 2.3 mph3.7 kmh 29.76 in1007.8 mb - 0.00 in0.0 mm 0.00 in0.0 mm
12:10 AM 31.0°F-0.6°C 26.5°F-3.1°C 83% 4.6 mph N7.4 kmh N 4.6 mph7.4 kmh 29.76 in1007.8 mb - 0.00 in0.0 mm 0.00 in0.0 mm
12:15 AM 31.1°F-0.5°C 26.5°F-3.1°C 83% 4.6 mph NNW7.4 kmh NNW 6.9 mph11.1 kmh 29.76 in1007.8 mb - 0.00 in0.0 mm 0.00 in0.0 mm
12:20 AM 31.1°F-0.5°C 26.5°F-3.1°C 83% 2.3 mph NNW3.7 kmh NNW 3.5 mph5.6 kmh 29.76 in1007.8 mb - 0.00 in0.0 mm 0.00 in0.0 mm
12:25 AM 31.1°F-0.5°C 26.5°F-3.1°C 83% 2.3 mph WNW3.7 kmh WNW 3.5 mph5.6 kmh 29.76 in1007.8 mb - 0.00 in0.0 mm 0.00 in0.0 mm
12:30 AM 31.1°F-0.5°C 26.5°F-3.1°C 83% 1.2 mph NNW1.9 kmh NNW 1.2 mph1.9 kmh 29.76 in1007.8 mb - 0.00 in0.0 mm 0.00 in0.0 mm
12:35 AM 30.9°F-0.6°C 26.4°F-3.1°C 83% 2.3 mph NNW3.7 kmh NNW 3.5 mph5.6 kmh 29.76 in1007.8 mb - 0.00 in0.0 mm 0.00 in0.0 mm
12:40 AM 31.1°F-0.5°C 26.8°F-2.9°C 84% 2.3 mph NW3.7 kmh NW 2.3 mph3.7 kmh 29.76 in1007.8 mb - 0.00 in0.0 mm 0.00 in0.0 mm
12:45 AM 30.9°F-0.6°C 26.7°F-2.9°C 84% 2.3 mph NW3.7 kmh NW 3.5 mph5.6 kmh 29.76 in1007.8 mb - 0.00 in0.0 mm 0.00 in0.0 mm
12:50 AM 31.1°F-0.5°C 26.5°F-3.1°C 83% 3.5 mph NNW5.6 kmh NNW 4.6 mph7.4 kmh 29.76 in1007.8 mb - 0.00 in0.0 mm 0.00 in0.0 mm
12:55 AM 31.1°F-0.5°C 26.5°F-3.1°C 83% 3.5 mph NW5.6 kmh NW 3.5 mph5.6 kmh 29.76 in1007.8 mb - 0.00 in0.0 mm 0.00 in0.0 mm
01:00 AM 31.1°F-0.5°C 26.5°F-3.1°C 83% 2.3 mph WNW3.7 kmh WNW 3.5 mph5.6 kmh 29.77 in1008.1 mb - 0.00 in0.0 mm 0.00 in0.0 mm
01:10 AM 30.9°F-0.6°C 26.4°F-3.1°C 83% 1.2 mph NW1.9 kmh NW 2.3 mph3.7 kmh 29.77 in1008.1 mb - 0.00 in0.0 mm 0.00 in0.0 mm
01:15 AM 30.9°F-0.6°C 26.4°F-3.1°C 83% 2.3 mph NW3.7 kmh NW 2.3 mph3.7 kmh 29.76 in1007.8 mb - 0.00 in0.0 mm 0.00 in0.0 mm
01:20 AM 30.9°F-0.6°C 26.7°F-2.9°C 84% 2.3 mph NW3.7 kmh NW 3.5 mph5.6 kmh 29.76 in1007.8 mb - 0.00 in0.0 mm 0.00 in0.0 mm
01:25 AM 30.9°F-0.6°C 26.7°F-2.9°C 84% 2.3 mph NNW3.7 kmh NNW 2.3 mph3.7 kmh 29.76 in1007.8 mb - 0.00 in0.0 mm 0.00 in0.0 mm
01:30 AM 30.9°F-0.6°C 26.7°F-2.9°C 84% 2.3 mph NW3.7 kmh NW 2.3 mph3.7 kmh 29.76 in1007.8 mb - 0.00 in0.0 mm 0.00 in0.0 mm
01:35 AM 30.9°F-0.6°C 26.7°F-2.9°C 84% 1.2 mph NNW1.9 kmh NNW 2.3 mph3.7 kmh 29.76 in1007.8 mb - 0.00 in0.0 mm 0.00 in0.0 mm
01:40 AM 30.9°F-0.6°C 26.7°F-2.9°C 84% 1.2 mph NNW1.9 kmh NNW 2.3 mph3.7 kmh 29.76 in1007.8 mb - 0.00 in0.0 mm 0.00 in0.0 mm
01:45 AM 30.9°F-0.6°C 26.7°F-2.9°C 84% Calm Calm -- 29.76 in1007.8 mb - 0.00 in0.0 mm 0.00 in0.0 mm
01:50 AM 30.9°F-0.6°C 26.7°F-2.9°C 84% 1.2 mph NNW1.9 kmh NNW 1.2 mph1.9 kmh 29.76 in1007.8 mb - 0.00 in0.0 mm 0.00 in0.0 mm
01:55 AM 30.9°F-0.6°C 26.7°F-2.9°C 84% Calm Calm -- 29.76 in1007.8 mb - 0.00 in0.0 mm 0.00 in0.0 mm
02:00 AM 30.9°F-0.6°C 26.7°F-2.9°C 84% Calm Calm 1.2 mph1.9 kmh 29.77 in1008.1 mb - 0.00 in0.0 mm 0.00 in0.0 mm
02:10 AM 30.7°F-0.7°C 26.5°F-3.1°C 84% Calm Calm -- 29.77 in1008.1 mb - 0.00 in0.0 mm 0.00 in0.0 mm
02:15 AM 30.7°F-0.7°C 26.5°F-3.1°C 84% Calm Calm -- 29.77 in1008.1 mb - 0.00 in0.0 mm 0.00 in0.0 mm
02:20 AM 30.7°F-0.7°C 26.5°F-3.1°C 84% Calm Calm -- 29.77 in1008.1 mb - 0.00 in0.0 mm 0.00 in0.0 mm
02:25 AM 30.7°F-0.7°C 26.5°F-3.1°C 84% Calm Calm -- 29.77 in1008.1 mb - 0.00 in0.0 mm 0.00 in0.0 mm
02:30 AM 30.7°F-0.7°C 26.5°F-3.1°C 84% Calm Calm -- 29.77 in1008.1 mb - 0.00 in0.0 mm 0.00 in0.0 mm
02:35 AM 30.7°F-0.7°C 26.5°F-3.1°C 84% Calm Calm -- 29.77 in1008.1 mb - 0.00 in0.0 mm 0.00 in0.0 mm
02:40 AM 30.7°F-0.7°C 26.5°F-3.1°C 84% Calm Calm -- 29.77 in1008.1 mb - 0.00 in0.0 mm 0.00 in0.0 mm
02:45 AM 30.7°F-0.7°C 26.5°F-3.1°C 84% Calm Calm -- 29.77 in1008.1 mb - 0.00 in0.0 mm 0.00 in0.0 mm
02:50 AM 30.7°F-0.7°C 26.5°F-3.1°C 84% Calm Calm -- 29.77 in1008.1 mb - 0.00 in0.0 mm 0.00 in0.0 mm
02:55 AM 30.7°F-0.7°C 26.5°F-3.1°C 84% Calm Calm -- 29.77 in1008.1 mb - 0.00 in0.0 mm 0.00 in0.0 mm
03:00 AM 30.7°F-0.7°C 26.5°F-3.1°C 84% 1.2 mph NNW1.9 kmh NNW 1.2 mph1.9 kmh 29.76 in1007.8 mb - 0.00 in0.0 mm 0.00 in0.0 mm
03:10 AM 30.7°F-0.7°C 26.5°F-3.1°C 84% 3.5 mph W5.6 kmh W 4.6 mph7.4 kmh 29.76 in1007.8 mb - 0.00 in0.0 mm 0.00 in0.0 mm
03:15 AM 30.9°F-0.6°C 26.7°F-2.9°C 84% 2.3 mph NW3.7 kmh NW 3.5 mph5.6 kmh 29.78 in1008.5 mb - 0.00 in0.0 mm 0.00 in0.0 mm
03:20 AM 30.9°F-0.6°C 26.4°F-3.1°C 83% 2.3 mph WNW3.7 kmh WNW 3.5 mph5.6 kmh 29.78 in1008.5 mb - 0.00 in0.0 mm 0.00 in0.0 mm
03:25 AM 30.9°F-0.6°C 26.4°F-3.1°C 83% 1.2 mph WNW1.9 kmh WNW 1.2 mph1.9 kmh 29.78 in1008.5 mb - 0.00 in0.0 mm 0.00 in0.0 mm
03:30 AM 30.9°F-0.6°C 26.4°F-3.1°C 83% 2.3 mph NW3.7 kmh NW 2.3 mph3.7 kmh 29.77 in1008.1 mb - 0.00 in0.0 mm 0.00 in0.0 mm
03:35 AM 30.9°F-0.6°C 26.4°F-3.1°C 83% 2.3 mph NW3.7 kmh NW 3.5 mph5.6 kmh 29.77 in1008.1 mb - 0.00 in0.0 mm 0.00 in0.0 mm
03:40 AM 30.9°F-0.6°C 26.4°F-3.1°C 83% 2.3 mph NW3.7 kmh NW 2.3 mph3.7 kmh 29.77 in1008.1 mb - 0.00 in0.0 mm 0.00 in0.0 mm
03:45 AM 30.9°F-0.6°C 26.4°F-3.1°C 83% 3.5 mph WNW5.6 kmh WNW 4.6 mph7.4 kmh 29.77 in1008.1 mb - 0.00 in0.0 mm 0.00 in0.0 mm
03:50 AM 30.9°F-0.6°C 26.1°F-3.3°C 82% 4.6 mph NW7.4 kmh NW 4.6 mph7.4 kmh 29.77 in1008.1 mb - 0.00 in0.0 mm 0.00 in0.0 mm
03:55 AM 31.1°F-0.5°C 25.7°F-3.5°C 80% 2.3 mph NNE3.7 kmh NNE 3.5 mph5.6 kmh 29.77 in1008.1 mb - 0.00 in0.0 mm 0.00 in0.0 mm
04:00 AM 31.1°F-0.5°C 25.7°F-3.5°C 80% 2.3 mph NNW3.7 kmh NNW 2.3 mph3.7 kmh 29.78 in1008.5 mb - 0.00 in0.0 mm 0.00 in0.0 mm
04:10 AM 30.9°F-0.6°C 25.8°F-3.4°C 81% 2.3 mph WNW3.7 kmh WNW 2.3 mph3.7 kmh 29.78 in1008.5 mb - 0.00 in0.0 mm 0.00 in0.0 mm
04:15 AM 30.9°F-0.6°C 25.8°F-3.4°C 81% 2.3 mph NW3.7 kmh NW 3.5 mph5.6 kmh 29.78 in1008.5 mb - 0.00 in0.0 mm 0.00 in0.0 mm
04:20 AM 30.9°F-0.6°C 26.1°F-3.3°C 82% 2.3 mph WNW3.7 kmh WNW 3.5 mph5.6 kmh 29.78 in1008.5 mb - 0.00 in0.0 mm 0.00 in0.0 mm
04:25 AM 30.7°F-0.7°C 25.9°F-3.4°C 82% 3.5 mph W5.6 kmh W 3.5 mph5.6 kmh 29.78 in1008.5 mb - 0.00 in0.0 mm 0.00 in0.0 mm
04:30 AM 30.7°F-0.7°C 25.9°F-3.4°C 82% 3.5 mph W5.6 kmh W 5.8 mph9.3 kmh 29.78 in1008.5 mb - 0.00 in0.0 mm 0.00 in0.0 mm
04:35 AM 30.7°F-0.7°C 25.6°F-3.6°C 81% 2.3 mph WSW3.7 kmh WSW 3.5 mph5.6 kmh 29.78 in1008.5 mb - 0.00 in0.0 mm 0.00 in0.0 mm
04:40 AM 30.7°F-0.7°C 25.6°F-3.6°C 81% 2.3 mph SW3.7 kmh SW 2.3 mph3.7 kmh 29.78 in1008.5 mb - 0.00 in0.0 mm 0.00 in0.0 mm
04:45 AM 30.7°F-0.7°C 25.6°F-3.6°C 81% Calm Calm -- 29.79 in1008.8 mb - 0.00 in0.0 mm 0.00 in0.0 mm
04:50 AM 30.7°F-0.7°C 25.6°F-3.6°C 81% 1.2 mph WSW1.9 kmh WSW 1.2 mph1.9 kmh 29.79 in1008.8 mb - 0.00 in0.0 mm 0.00 in0.0 mm
04:55 AM 30.7°F-0.7°C 25.6°F-3.6°C 81% 2.3 mph WSW3.7 kmh WSW 1.2 mph1.9 kmh 29.79 in1008.8 mb - 0.00 in0.0 mm 0.00 in0.0 mm
05:00 AM 30.7°F-0.7°C 25.6°F-3.6°C 81% Calm Calm 1.2 mph1.9 kmh 29.79 in1008.8 mb - 0.00 in0.0 mm 0.00 in0.0 mm
05:10 AM 30.6°F-0.8°C 25.4°F-3.7°C 81% 1.2 mph WSW1.9 kmh WSW 1.2 mph1.9 kmh 29.79 in1008.8 mb - 0.00 in0.0 mm 0.00 in0.0 mm
05:15 AM 30.6°F-0.8°C 25.4°F-3.7°C 81% 2.3 mph WNW3.7 kmh WNW 2.3 mph3.7 kmh 29.79 in1008.8 mb - 0.00 in0.0 mm 0.00 in0.0 mm
05:20 AM 30.6°F-0.8°C 25.4°F-3.7°C 81% 1.2 mph WNW1.9 kmh WNW 2.3 mph3.7 kmh 29.79 in1008.8 mb - 0.00 in0.0 mm 0.00 in0.0 mm
05:25 AM 30.6°F-0.8°C 25.4°F-3.7°C 81% 2.3 mph W3.7 kmh W 2.3 mph3.7 kmh 29.79 in1008.8 mb - 0.00 in0.0 mm 0.00 in0.0 mm
05:30 AM 30.6°F-0.8°C 25.4°F-3.7°C 81% 2.3 mph NW3.7 kmh NW 3.5 mph5.6 kmh 29.78 in1008.5 mb - 0.00 in0.0 mm 0.00 in0.0 mm
05:35 AM 30.6°F-0.8°C 25.4°F-3.7°C 81% 2.3 mph WSW3.7 kmh WSW 3.5 mph5.6 kmh 29.78 in1008.5 mb - 0.00 in0.0 mm 0.00 in0.0 mm
05:40 AM 30.6°F-0.8°C 25.4°F-3.7°C 81% 1.2 mph SW1.9 kmh SW 2.3 mph3.7 kmh 29.78 in1008.5 mb - 0.00 in0.0 mm 0.00 in0.0 mm
05:45 AM 30.6°F-0.8°C 25.1°F-3.8°C 80% 1.2 mph SW1.9 kmh SW 2.3 mph3.7 kmh 29.79 in1008.8 mb - 0.00 in0.0 mm 0.00 in0.0 mm
05:50 AM 30.4°F-0.9°C 25.2°F-3.8°C 81% Calm Calm -- 29.79 in1008.8 mb - 0.00 in0.0 mm 0.00 in0.0 mm
05:55 AM 30.4°F-0.9°C 25.2°F-3.8°C 81% Calm Calm -- 29.79 in1008.8 mb - 0.00 in0.0 mm 0.00 in0.0 mm
06:00 AM 30.4°F-0.9°C 25.2°F-3.8°C 81% Calm Calm -- 29.79 in1008.8 mb - 0.00 in0.0 mm 0.00 in0.0 mm
06:10 AM 30.2°F-1.0°C 25.0°F-3.9°C 81% Calm Calm 1.2 mph1.9 kmh 29.79 in1008.8 mb - 0.00 in0.0 mm 0.00 in0.0 mm
06:15 AM 30.0°F-1.1°C 24.9°F-3.9°C 81% 1.2 mph SW1.9 kmh SW 1.2 mph1.9 kmh 29.78 in1008.5 mb - 0.00 in0.0 mm 0.00 in0.0 mm
06:20 AM 30.0°F-1.1°C 25.2°F-3.8°C 82% Calm Calm -- 29.78 in1008.5 mb - 0.00 in0.0 mm 0.00 in0.0 mm
06:25 AM 29.8°F-1.2°C 25.0°F-3.9°C 82% Calm Calm -- 29.78 in1008.5 mb - 0.00 in0.0 mm 0.00 in0.0 mm
06:30 AM 29.4°F-1.4°C 24.6°F-4.1°C 82% Calm Calm -- 29.78 in1008.5 mb - 0.00 in0.0 mm 0.00 in0.0 mm
06:35 AM 29.0°F-1.7°C 24.2°F-4.3°C 82% 1.2 mph SW1.9 kmh SW 1.2 mph1.9 kmh 29.78 in1008.5 mb - 0.00 in0.0 mm 0.00 in0.0 mm
06:40 AM 28.9°F-1.7°C 24.1°F-4.4°C 82% Calm Calm -- 29.78 in1008.5 mb - 0.00 in0.0 mm 0.00 in0.0 mm
06:45 AM 28.9°F-1.7°C 24.4°F-4.2°C 83% Calm Calm -- 29.80 in1009.1 mb - 0.00 in0.0 mm 0.00 in0.0 mm
06:50 AM 28.6°F-1.9°C 24.1°F-4.4°C 83% Calm Calm -- 29.80 in1009.1 mb - 0.00 in0.0 mm 0.00 in0.0 mm
06:55 AM 28.2°F-2.1°C 23.7°F-4.6°C 83% Calm Calm -- 29.80 in1009.1 mb - 0.00 in0.0 mm 0.00 in0.0 mm
07:00 AM 28.0°F-2.2°C 23.5°F-4.7°C 83% Calm Calm -- 29.80 in1009.1 mb - 0.00 in0.0 mm 0.00 in0.0 mm
07:10 AM 27.7°F-2.4°C 23.2°F-4.9°C 83% 1.2 mph NW1.9 kmh NW 1.2 mph1.9 kmh 29.80 in1009.1 mb - 0.00 in0.0 mm 0.00 in0.0 mm
07:15 AM 27.5°F-2.5°C 23.0°F-5.0°C 83% Calm Calm -- 29.80 in1009.1 mb - 0.00 in0.0 mm 0.00 in0.0 mm
07:20 AM 27.5°F-2.5°C 23.0°F-5.0°C 83% Calm Calm -- 29.80 in1009.1 mb - 0.00 in0.0 mm 0.00 in0.0 mm
07:25 AM 27.1°F-2.7°C 22.7°F-5.2°C 83% Calm Calm -- 29.80 in1009.1 mb - 0.00 in0.0 mm 0.00 in0.0 mm
07:30 AM 27.0°F-2.8°C 22.5°F-5.3°C 83% Calm Calm -- 29.80 in1009.1 mb - 0.00 in0.0 mm 0.00 in0.0 mm
07:35 AM 26.8°F-2.9°C 22.3°F-5.4°C 83% 1.2 mph NW1.9 kmh NW 1.2 mph1.9 kmh 29.80 in1009.1 mb - 0.00 in0.0 mm 0.00 in0.0 mm
07:40 AM 26.8°F-2.9°C 22.3°F-5.4°C 83% Calm Calm -- 29.80 in1009.1 mb - 0.00 in0.0 mm 0.00 in0.0 mm
07:45 AM 26.8°F-2.9°C 22.3°F-5.4°C 83% Calm Calm -- 29.81 in1009.5 mb - 0.00 in0.0 mm 0.00 in0.0 mm
07:50 AM 26.8°F-2.9°C 22.3°F-5.4°C 83% Calm Calm -- 29.81 in1009.5 mb - 0.00 in0.0 mm 0.00 in0.0 mm
07:55 AM 26.8°F-2.9°C 22.3°F-5.4°C 83% Calm Calm -- 29.81 in1009.5 mb - 0.00 in0.0 mm 0.00 in0.0 mm
08:00 AM 26.8°F-2.9°C 22.3°F-5.4°C 83% Calm Calm 1.2 mph1.9 kmh 29.82 in1009.8 mb - 0.00 in0.0 mm 0.00 in0.0 mm
08:10 AM 26.8°F-2.9°C 22.6°F-5.2°C 84% Calm Calm -- 29.82 in1009.8 mb - 0.00 in0.0 mm 0.00 in0.0 mm
08:15 AM 27.0°F-2.8°C 22.8°F-5.1°C 84% Calm Calm -- 29.82 in1009.8 mb - 0.00 in0.0 mm 0.00 in0.0 mm
08:20 AM 27.0°F-2.8°C 22.8°F-5.1°C 84% Calm Calm -- 29.82 in1009.8 mb - 0.00 in0.0 mm 0.00 in0.0 mm
08:25 AM 27.1°F-2.7°C 22.9°F-5.1°C 84% Calm Calm -- 29.82 in1009.8 mb - 0.00 in0.0 mm 0.00 in0.0 mm
08:30 AM 27.3°F-2.6°C 23.1°F-4.9°C 84% Calm Calm -- 29.82 in1009.8 mb - 0.00 in0.0 mm 0.00 in0.0 mm
08:35 AM 27.5°F-2.5°C 23.3°F-4.8°C 84% Calm Calm -- 29.82 in1009.8 mb - 0.00 in0.0 mm 0.00 in0.0 mm
08:40 AM 27.7°F-2.4°C 23.5°F-4.7°C 84% Calm Calm -- 29.82 in1009.8 mb - 0.00 in0.0 mm 0.00 in0.0 mm
08:45 AM 27.9°F-2.3°C 24.2°F-4.3°C 86% 1.2 mph NW1.9 kmh NW 1.2 mph1.9 kmh 29.83 in1010.2 mb - 0.00 in0.0 mm 0.00 in0.0 mm
08:50 AM 28.0°F-2.2°C 24.4°F-4.2°C 86% 1.2 mph NW1.9 kmh NW 2.3 mph3.7 kmh 29.83 in1010.2 mb - 0.00 in0.0 mm 0.00 in0.0 mm
08:55 AM 28.2°F-2.1°C 24.6°F-4.1°C 86% Calm Calm 1.2 mph1.9 kmh 29.83 in1010.2 mb - 0.00 in0.0 mm 0.00 in0.0 mm
09:00 AM 28.5°F-1.9°C 24.9°F-3.9°C 86% Calm Calm -- 29.83 in1010.2 mb - 0.00 in0.0 mm 0.00 in0.0 mm
09:10 AM 29.3°F-1.5°C 25.6°F-3.6°C 86% 1.2 mph NW1.9 kmh NW 2.3 mph3.7 kmh 29.83 in1010.2 mb - 0.00 in0.0 mm 0.00 in0.0 mm
09:15 AM 29.7°F-1.3°C 26.0°F-3.3°C 86% 2.3 mph WNW3.7 kmh WNW 2.3 mph3.7 kmh 29.83 in1010.2 mb - 0.00 in0.0 mm 0.00 in0.0 mm
09:20 AM 29.8°F-1.2°C 26.2°F-3.2°C 86% 2.3 mph WNW3.7 kmh WNW 3.5 mph5.6 kmh 29.83 in1010.2 mb - 0.00 in0.0 mm 0.00 in0.0 mm
09:25 AM 30.2°F-1.0°C 26.5°F-3.1°C 86% 1.2 mph NW1.9 kmh NW 2.3 mph3.7 kmh 29.83 in1010.2 mb - 0.00 in0.0 mm 0.00 in0.0 mm
09:30 AM 30.3°F-0.9°C 25.8°F-3.4°C 83% 3.5 mph WNW5.6 kmh WNW 3.5 mph5.6 kmh 29.84 in1010.5 mb - 0.00 in0.0 mm 0.00 in0.0 mm
09:35 AM 30.4°F-0.9°C 25.8°F-3.4°C 83% 2.3 mph WNW3.7 kmh WNW 2.3 mph3.7 kmh 29.84 in1010.5 mb - 0.00 in0.0 mm 0.00 in0.0 mm
09:40 AM 30.7°F-0.7°C 25.9°F-3.4°C 82% 3.5 mph NW5.6 kmh NW 3.5 mph5.6 kmh 29.84 in1010.5 mb - 0.00 in0.0 mm 0.00 in0.0 mm
09:45 AM 30.7°F-0.7°C 25.0°F-3.9°C 79% 3.5 mph NNW5.6 kmh NNW 3.5 mph5.6 kmh 29.83 in1010.2 mb - 0.00 in0.0 mm 0.00 in0.0 mm
09:50 AM 30.9°F-0.6°C 24.2°F-4.3°C 76% 3.5 mph NW5.6 kmh NW 3.5 mph5.6 kmh 29.83 in1010.2 mb - 0.00 in0.0 mm 0.00 in0.0 mm
09:55 AM 31.3°F-0.4°C 25.2°F-3.8°C 78% 2.3 mph NNW3.7 kmh NNW 3.5 mph5.6 kmh 29.83 in1010.2 mb - 0.00 in0.0 mm 0.00 in0.0 mm
10:00 AM 31.5°F-0.3°C 25.4°F-3.7°C 78% 2.3 mph NW3.7 kmh NW 2.3 mph3.7 kmh 29.84 in1010.5 mb - 0.00 in0.0 mm 0.00 in0.0 mm
10:10 AM 32.0°F0.0°C 25.9°F-3.4°C 78% 2.3 mph NNW3.7 kmh NNW 3.5 mph5.6 kmh 29.84 in1010.5 mb - 0.00 in0.0 mm 0.00 in0.0 mm
10:15 AM 32.2°F0.1°C 26.1°F-3.3°C 78% 3.5 mph NE5.6 kmh NE 4.6 mph7.4 kmh 29.84 in1010.5 mb - 0.00 in0.0 mm 0.00 in0.0 mm
10:20 AM 32.2°F0.1°C 25.5°F-3.6°C 76% 3.5 mph NNW5.6 kmh NNW 4.6 mph7.4 kmh 29.84 in1010.5 mb - 0.00 in0.0 mm 0.00 in0.0 mm
10:25 AM 32.3°F0.2°C 25.3°F-3.7°C 75% 2.3 mph NNE3.7 kmh NNE 3.5 mph5.6 kmh 29.84 in1010.5 mb - 0.00 in0.0 mm 0.00 in0.0 mm
10:30 AM 32.5°F0.3°C 25.5°F-3.6°C 75% 2.3 mph N3.7 kmh N 3.5 mph5.6 kmh 29.83 in1010.2 mb - 0.00 in0.0 mm 0.00 in0.0 mm
10:35 AM 32.8°F0.4°C 26.1°F-3.3°C 76% 2.3 mph NW3.7 kmh NW 2.3 mph3.7 kmh 29.83 in1010.2 mb - 0.00 in0.0 mm 0.00 in0.0 mm
10:40 AM 33.3°F0.7°C 26.5°F-3.1°C 76% 2.3 mph NW3.7 kmh NW 3.5 mph5.6 kmh 29.83 in1010.2 mb - 0.00 in0.0 mm 0.00 in0.0 mm
10:45 AM 33.4°F0.8°C 26.4°F-3.1°C 75% 2.3 mph SW3.7 kmh SW 3.5 mph5.6 kmh 29.85 in1010.8 mb - 0.00 in0.0 mm 0.00 in0.0 mm
10:50 AM 33.4°F0.8°C 26.4°F-3.1°C 75% 2.3 mph SW3.7 kmh SW 2.3 mph3.7 kmh 29.85 in1010.8 mb - 0.00 in0.0 mm 0.00 in0.0 mm
10:55 AM 33.4°F0.8°C 26.4°F-3.1°C 75% 2.3 mph SSW3.7 kmh SSW 2.3 mph3.7 kmh 29.85 in1010.8 mb - 0.00 in0.0 mm 0.00 in0.0 mm
11:00 AM 33.9°F1.1°C 27.1°F-2.7°C 76% 2.3 mph W3.7 kmh W 3.5 mph5.6 kmh 29.84 in1010.5 mb - 0.00 in0.0 mm 0.00 in0.0 mm
11:10 AM 32.9°F0.5°C 23.8°F-4.6°C 69% 1.2 mph NNW1.9 kmh NNW 2.3 mph3.7 kmh 29.84 in1010.5 mb - 0.00 in0.0 mm 0.00 in0.0 mm
11:15 AM 33.6°F0.9°C 25.6°F-3.6°C 72% 3.5 mph SSW5.6 kmh SSW 3.5 mph5.6 kmh 29.83 in1010.2 mb - 0.00 in0.0 mm 0.00 in0.0 mm
11:20 AM 33.8°F1.0°C 26.4°F-3.1°C 74% 2.3 mph SSW3.7 kmh SSW 2.3 mph3.7 kmh 29.83 in1010.2 mb - 0.00 in0.0 mm 0.00 in0.0 mm
11:25 AM 34.0°F1.1°C 26.6°F-3.0°C 74% 2.3 mph WSW3.7 kmh WSW 2.3 mph3.7 kmh 29.83 in1010.2 mb - 0.00 in0.0 mm 0.00 in0.0 mm
11:30 AM 34.2°F1.2°C 26.7°F-2.9°C 74% 2.3 mph S3.7 kmh S 3.5 mph5.6 kmh 29.82 in1009.8 mb - 0.00 in0.0 mm 0.00 in0.0 mm
11:35 AM 34.0°F1.1°C 26.6°F-3.0°C 74% Calm Calm 1.2 mph1.9 kmh 29.82 in1009.8 mb - 0.00 in0.0 mm 0.00 in0.0 mm
11:40 AM 34.2°F1.2°C 26.7°F-2.9°C 74% Calm Calm -- 29.82 in1009.8 mb - 0.00 in0.0 mm 0.00 in0.0 mm
11:45 AM 34.2°F1.2°C 26.7°F-2.9°C 74% 2.3 mph SE3.7 kmh SE 3.5 mph5.6 kmh 29.83 in1010.2 mb - 0.00 in0.0 mm 0.00 in0.0 mm
11:50 AM 34.2°F1.2°C 26.7°F-2.9°C 74% 1.2 mph SW1.9 kmh SW 1.2 mph1.9 kmh 29.83 in1010.2 mb - 0.00 in0.0 mm 0.00 in0.0 mm
11:55 AM 34.0°F1.1°C 26.2°F-3.2°C 73% 2.3 mph SW3.7 kmh SW 3.5 mph5.6 kmh 29.83 in1010.2 mb - 0.00 in0.0 mm 0.00 in0.0 mm
12:00 PM 34.0°F1.1°C 26.6°F-3.0°C 74% 1.2 mph WSW1.9 kmh WSW 2.3 mph3.7 kmh 29.82 in1009.8 mb - 0.00 in0.0 mm 0.00 in0.0 mm
12:10 PM 33.6°F0.9°C 24.9°F-3.9°C 70% 3.5 mph NW5.6 kmh NW 3.5 mph5.6 kmh 29.82 in1009.8 mb - 0.00 in0.0 mm 0.00 in0.0 mm
12:15 PM 33.6°F0.9°C 25.6°F-3.6°C 72% 2.3 mph WSW3.7 kmh WSW 3.5 mph5.6 kmh 29.82 in1009.8 mb - 0.00 in0.0 mm 0.00 in0.0 mm
12:20 PM 33.6°F0.9°C 25.9°F-3.4°C 73% 3.5 mph SSW5.6 kmh SSW 3.5 mph5.6 kmh 29.82 in1009.8 mb - 0.00 in0.0 mm 0.00 in0.0 mm
12:25 PM 33.4°F0.8°C 25.7°F-3.5°C 73% 2.3 mph SW3.7 kmh SW 2.3 mph3.7 kmh 29.82 in1009.8 mb - 0.00 in0.0 mm 0.00 in0.0 mm
12:30 PM 33.3°F0.7°C 25.9°F-3.4°C 74% 2.3 mph SSW3.7 kmh SSW 3.5 mph5.6 kmh 29.82 in1009.8 mb - 0.00 in0.0 mm 0.00 in0.0 mm
12:35 PM 33.3°F0.7°C 25.5°F-3.6°C 73% 2.3 mph NW3.7 kmh NW 2.3 mph3.7 kmh 29.82 in1009.8 mb - 0.00 in0.0 mm 0.00 in0.0 mm
12:40 PM 33.4°F0.8°C 26.0°F-3.3°C 74% 1.2 mph WNW1.9 kmh WNW 2.3 mph3.7 kmh 29.82 in1009.8 mb - 0.00 in0.0 mm 0.00 in0.0 mm
12:45 PM 33.4°F0.8°C 26.0°F-3.3°C 74% 2.3 mph WSW3.7 kmh WSW 2.3 mph3.7 kmh 29.82 in1009.8 mb - 0.00 in0.0 mm 0.00 in0.0 mm
12:50 PM 33.3°F0.7°C 25.9°F-3.4°C 74% 2.3 mph SW3.7 kmh SW 3.5 mph5.6 kmh 29.82 in1009.8 mb - 0.00 in0.0 mm 0.00 in0.0 mm
12:55 PM 33.3°F0.7°C 25.9°F-3.4°C 74% 2.3 mph SW3.7 kmh SW 3.5 mph5.6 kmh 29.82 in1009.8 mb - 0.00 in0.0 mm 0.00 in0.0 mm
01:00 PM 33.3°F0.7°C 26.2°F-3.2°C 75% 2.3 mph SW3.7 kmh SW 3.5 mph5.6 kmh 29.81 in1009.5 mb - 0.00 in0.0 mm 0.00 in0.0 mm
01:10 PM 33.1°F0.6°C 25.7°F-3.5°C 74% 2.3 mph WNW3.7 kmh WNW 3.5 mph5.6 kmh 29.81 in1009.5 mb - 0.00 in0.0 mm 0.00 in0.0 mm
01:15 PM 33.1°F0.6°C 25.4°F-3.7°C 73% 3.5 mph WNW5.6 kmh WNW 3.5 mph5.6 kmh 29.80 in1009.1 mb - 0.00 in0.0 mm 0.00 in0.0 mm
01:20 PM 32.9°F0.5°C 24.9°F-3.9°C 72% 2.3 mph WNW3.7 kmh WNW 2.3 mph3.7 kmh 29.80 in1009.1 mb - 0.00 in0.0 mm 0.00 in0.0 mm
01:25 PM 33.0°F0.6°C 24.9°F-3.9°C 72% 2.3 mph NW3.7 kmh NW 3.5 mph5.6 kmh 29.80 in1009.1 mb - 0.00 in0.0 mm 0.00 in0.0 mm
01:30 PM 33.0°F0.6°C 24.6°F-4.1°C 71% 3.5 mph NW5.6 kmh NW 3.5 mph5.6 kmh 29.81 in1009.5 mb - 0.00 in0.0 mm 0.00 in0.0 mm
01:35 PM 33.1°F0.6°C 24.4°F-4.2°C 70% 3.5 mph NNW5.6 kmh NNW 3.5 mph5.6 kmh 29.81 in1009.5 mb - 0.00 in0.0 mm 0.00 in0.0 mm
01:40 PM 33.1°F0.6°C 24.4°F-4.2°C 70% 3.5 mph NW5.6 kmh NW 3.5 mph5.6 kmh 29.81 in1009.5 mb - 0.00 in0.0 mm 0.00 in0.0 mm
01:45 PM 33.3°F0.7°C 24.9°F-3.9°C 71% 3.5 mph NNW5.6 kmh NNW 4.6 mph7.4 kmh 29.81 in1009.5 mb - 0.00 in0.0 mm 0.00 in0.0 mm
01:50 PM 33.3°F0.7°C 24.9°F-3.9°C 71% 3.5 mph NNW5.6 kmh NNW 3.5 mph5.6 kmh 29.81 in1009.5 mb - 0.00 in0.0 mm 0.00 in0.0 mm
01:55 PM 33.3°F0.7°C 24.9°F-3.9°C 71% 3.5 mph NNW5.6 kmh NNW 3.5 mph5.6 kmh 29.81 in1009.5 mb - 0.00 in0.0 mm 0.00 in0.0 mm
02:00 PM 33.3°F0.7°C 24.9°F-3.9°C 71% 2.3 mph NNW3.7 kmh NNW 3.5 mph5.6 kmh 29.80 in1009.1 mb - 0.00 in0.0 mm 0.00 in0.0 mm
02:10 PM 33.4°F0.8°C 24.7°F-4.1°C 70% 3.5 mph NNW5.6 kmh NNW 4.6 mph7.4 kmh 29.80 in1009.1 mb - 0.00 in0.0 mm 0.00 in0.0 mm
02:15 PM 33.6°F0.9°C 24.9°F-3.9°C 70% 4.6 mph NNW7.4 kmh NNW 4.6 mph7.4 kmh 29.80 in1009.1 mb - 0.00 in0.0 mm 0.00 in0.0 mm
02:20 PM 33.6°F0.9°C 24.9°F-3.9°C 70% 3.5 mph NNW5.6 kmh NNW 4.6 mph7.4 kmh 29.80 in1009.1 mb - 0.00 in0.0 mm 0.00 in0.0 mm
02:25 PM 33.6°F0.9°C 24.9°F-3.9°C 70% 4.6 mph NW7.4 kmh NW 4.6 mph7.4 kmh 29.80 in1009.1 mb - 0.00 in0.0 mm 0.00 in0.0 mm
02:30 PM 33.8°F1.0°C 25.0°F-3.9°C 70% 4.6 mph NW7.4 kmh NW 4.6 mph7.4 kmh 29.80 in1009.1 mb - 0.00 in0.0 mm 0.00 in0.0 mm
02:35 PM 33.6°F0.9°C 24.5°F-4.2°C 69% 3.5 mph NW5.6 kmh NW 3.5 mph5.6 kmh 29.80 in1009.1 mb - 0.00 in0.0 mm 0.00 in0.0 mm
02:40 PM 33.8°F1.0°C 25.4°F-3.7°C 71% 2.3 mph NNW3.7 kmh NNW 3.5 mph5.6 kmh 29.80 in1009.1 mb - 0.00 in0.0 mm 0.00 in0.0 mm
02:45 PM 33.6°F0.9°C 25.2°F-3.8°C 71% 2.3 mph NW3.7 kmh NW 3.5 mph5.6 kmh 29.80 in1009.1 mb - 0.00 in0.0 mm 0.00 in0.0 mm
02:50 PM 33.6°F0.9°C 25.2°F-3.8°C 71% 2.3 mph WNW3.7 kmh WNW 3.5 mph5.6 kmh 29.80 in1009.1 mb - 0.00 in0.0 mm 0.00 in0.0 mm
02:55 PM 33.6°F0.9°C 25.6°F-3.6°C 72% 2.3 mph NW3.7 kmh NW 3.5 mph5.6 kmh 29.80 in1009.1 mb - 0.00 in0.0 mm 0.00 in0.0 mm
03:00 PM 33.6°F0.9°C 25.9°F-3.4°C 73% 2.3 mph NW3.7 kmh NW 3.5 mph5.6 kmh 29.80 in1009.1 mb - 0.00 in0.0 mm 0.00 in0.0 mm
03:10 PM 33.6°F0.9°C 25.9°F-3.4°C 73% 1.2 mph NNE1.9 kmh NNE 3.5 mph5.6 kmh 29.80 in1009.1 mb - 0.00 in0.0 mm 0.00 in0.0 mm
03:15 PM 33.6°F0.9°C 25.9°F-3.4°C 73% 2.3 mph NE3.7 kmh NE 2.3 mph3.7 kmh 29.80 in1009.1 mb - 0.00 in0.0 mm 0.00 in0.0 mm
03:20 PM 33.6°F0.9°C 26.2°F-3.2°C 74% 2.3 mph N3.7 kmh N 2.3 mph3.7 kmh 29.80 in1009.1 mb - 0.00 in0.0 mm 0.00 in0.0 mm
03:25 PM 33.5°F0.8°C 25.8°F-3.4°C 73% 2.3 mph NNW3.7 kmh NNW 2.3 mph3.7 kmh 29.80 in1009.1 mb - 0.00 in0.0 mm 0.00 in0.0 mm
03:30 PM 33.3°F0.7°C 25.2°F-3.8°C 72% 2.3 mph NNW3.7 kmh NNW 3.5 mph5.6 kmh 29.80 in1009.1 mb - 0.00 in0.0 mm 0.00 in0.0 mm
03:35 PM 33.3°F0.7°C 25.2°F-3.8°C 72% 1.2 mph NNW1.9 kmh NNW 1.2 mph1.9 kmh 29.80 in1009.1 mb - 0.00 in0.0 mm 0.00 in0.0 mm
03:40 PM 33.3°F0.7°C 25.5°F-3.6°C 73% 2.3 mph NE3.7 kmh NE 2.3 mph3.7 kmh 29.80 in1009.1 mb - 0.00 in0.0 mm 0.00 in0.0 mm
03:45 PM 33.3°F0.7°C 25.5°F-3.6°C 73% 1.2 mph NNE1.9 kmh NNE 2.3 mph3.7 kmh 29.80 in1009.1 mb - 0.00 in0.0 mm 0.00 in0.0 mm
03:50 PM 33.3°F0.7°C 25.5°F-3.6°C 73% 1.2 mph NNE1.9 kmh NNE 1.2 mph1.9 kmh 29.80 in1009.1 mb - 0.00 in0.0 mm 0.00 in0.0 mm
03:55 PM 33.3°F0.7°C 25.9°F-3.4°C 74% 2.3 mph NE3.7 kmh NE 2.3 mph3.7 kmh 29.80 in1009.1 mb - 0.00 in0.0 mm 0.00 in0.0 mm
04:00 PM 33.3°F0.7°C 25.5°F-3.6°C 73% 2.3 mph NE3.7 kmh NE 3.5 mph5.6 kmh 29.79 in1008.8 mb - 0.00 in0.0 mm 0.00 in0.0 mm
04:10 PM 33.1°F0.6°C 25.7°F-3.5°C 74% 2.3 mph NE3.7 kmh NE 2.3 mph3.7 kmh 29.79 in1008.8 mb - 0.00 in0.0 mm 0.00 in0.0 mm
04:15 PM 32.9°F0.5°C 25.5°F-3.6°C 74% 2.3 mph NE3.7 kmh NE 2.3 mph3.7 kmh 29.79 in1008.8 mb - 0.00 in0.0 mm 0.00 in0.0 mm
04:20 PM 32.9°F0.5°C 25.5°F-3.6°C 74% 2.3 mph ENE3.7 kmh ENE 3.5 mph5.6 kmh 29.79 in1008.8 mb - 0.00 in0.0 mm 0.00 in0.0 mm
04:25 PM 32.9°F0.5°C 25.5°F-3.6°C 74% 2.3 mph NE3.7 kmh NE 3.5 mph5.6 kmh 29.79 in1008.8 mb - 0.00 in0.0 mm 0.00 in0.0 mm
04:30 PM 32.7°F0.4°C 25.7°F-3.5°C 75% 3.5 mph NNE5.6 kmh NNE 3.5 mph5.6 kmh 29.79 in1008.8 mb - 0.00 in0.0 mm 0.00 in0.0 mm
04:35 PM 32.7°F0.4°C 25.7°F-3.5°C 75% 2.3 mph NE3.7 kmh NE 2.3 mph3.7 kmh 29.79 in1008.8 mb - 0.03 in0.8 mm 0.03 in0.8 mm
04:40 PM 32.5°F0.3°C 25.5°F-3.6°C 75% 2.3 mph NE3.7 kmh NE 3.5 mph5.6 kmh 29.79 in1008.8 mb - 0.02 in0.5 mm 0.00 in0.0 mm
04:45 PM 32.5°F0.3°C 25.5°F-3.6°C 75% 3.5 mph ENE5.6 kmh ENE 3.5 mph5.6 kmh 29.79 in1008.8 mb - 0.02 in0.5 mm 0.00 in0.0 mm
04:50 PM 32.4°F0.2°C 25.3°F-3.7°C 75% 2.3 mph ENE3.7 kmh ENE 2.3 mph3.7 kmh 29.79 in1008.8 mb - 0.02 in0.5 mm 0.00 in0.0 mm
04:55 PM 32.3°F0.2°C 25.6°F-3.6°C 76% 3.5 mph NE5.6 kmh NE 3.5 mph5.6 kmh 29.79 in1008.8 mb - 0.02 in0.5 mm 0.00 in0.0 mm
05:00 PM 32.2°F0.1°C 25.4°F-3.7°C 76% 3.5 mph N5.6 kmh N 3.5 mph5.6 kmh 29.79 in1008.8 mb - 0.02 in0.5 mm 0.00 in0.0 mm
05:10 PM 32.0°F0.0°C 25.9°F-3.4°C 78% 3.5 mph NE5.6 kmh NE 4.6 mph7.4 kmh 29.79 in1008.8 mb - 0.02 in0.5 mm 0.00 in0.0 mm
05:15 PM 31.8°F-0.1°C 25.7°F-3.5°C 78% 3.5 mph NNE5.6 kmh NNE 3.5 mph5.6 kmh 29.79 in1008.8 mb - 0.02 in0.5 mm 0.00 in0.0 mm
05:20 PM 31.7°F-0.2°C 25.9°F-3.4°C 79% 3.5 mph ENE5.6 kmh ENE 3.5 mph5.6 kmh 29.79 in1008.8 mb - 0.02 in0.5 mm 0.00 in0.0 mm
05:25 PM 31.6°F-0.2°C 25.9°F-3.4°C 79% 2.3 mph NE3.7 kmh NE 2.3 mph3.7 kmh 29.79 in1008.8 mb - 0.02 in0.5 mm 0.00 in0.0 mm
05:30 PM 31.5°F-0.3°C 25.7°F-3.5°C 79% 2.3 mph ENE3.7 kmh ENE 3.5 mph5.6 kmh 29.80 in1009.1 mb - 0.02 in0.5 mm 0.00 in0.0 mm
05:35 PM 31.3°F-0.4°C 25.5°F-3.6°C 79% 2.3 mph ENE3.7 kmh ENE 2.3 mph3.7 kmh 29.80 in1009.1 mb - 0.02 in0.5 mm 0.00 in0.0 mm
05:40 PM 31.3°F-0.4°C 25.5°F-3.6°C 79% 3.5 mph ENE5.6 kmh ENE 3.5 mph5.6 kmh 29.80 in1009.1 mb - 0.00 in0.0 mm 0.00 in0.0 mm
05:45 PM 31.3°F-0.4°C 25.5°F-3.6°C 79% 2.3 mph ENE3.7 kmh ENE 2.3 mph3.7 kmh 29.80 in1009.1 mb - 0.00 in0.0 mm 0.00 in0.0 mm
05:50 PM 31.1°F-0.5°C 25.3°F-3.7°C 79% 3.5 mph ENE5.6 kmh ENE 3.5 mph5.6 kmh 29.80 in1009.1 mb - 0.00 in0.0 mm 0.00 in0.0 mm
05:55 PM 31.1°F-0.5°C 25.3°F-3.7°C 79% 3.5 mph NE5.6 kmh NE 3.5 mph5.6 kmh 29.80 in1009.1 mb - 0.00 in0.0 mm 0.00 in0.0 mm
06:00 PM 30.9°F-0.6°C 25.2°F-3.8°C 79% 2.3 mph NE3.7 kmh NE 3.5 mph5.6 kmh 29.79 in1008.8 mb - 0.00 in0.0 mm 0.00 in0.0 mm
06:10 PM 30.7°F-0.7°C 25.0°F-3.9°C 79% 2.3 mph ENE3.7 kmh ENE 3.5 mph5.6 kmh 29.79 in1008.8 mb - 0.00 in0.0 mm 0.00 in0.0 mm
06:15 PM 30.6°F-0.8°C 24.8°F-4.0°C 79% 2.3 mph E3.7 kmh E 3.5 mph5.6 kmh 29.80 in1009.1 mb - 0.00 in0.0 mm 0.00 in0.0 mm
06:20 PM 30.4°F-0.9°C 24.6°F-4.1°C 79% 3.5 mph E5.6 kmh E 3.5 mph5.6 kmh 29.80 in1009.1 mb - 0.00 in0.0 mm 0.00 in0.0 mm
06:25 PM 30.3°F-0.9°C 24.3°F-4.3°C 78% 2.3 mph ENE3.7 kmh ENE 3.5 mph5.6 kmh 29.80 in1009.1 mb - 0.00 in0.0 mm 0.00 in0.0 mm
06:30 PM 30.2°F-1.0°C 24.2°F-4.3°C 78% 2.3 mph ENE3.7 kmh ENE 2.3 mph3.7 kmh 29.80 in1009.1 mb - 0.00 in0.0 mm 0.00 in0.0 mm
06:35 PM 30.2°F-1.0°C 23.5°F-4.7°C 76% 2.3 mph NE3.7 kmh NE 2.3 mph3.7 kmh 29.80 in1009.1 mb - 0.00 in0.0 mm 0.00 in0.0 mm
06:40 PM 30.0°F-1.1°C 23.4°F-4.8°C 76% 2.3 mph ENE3.7 kmh ENE 3.5 mph5.6 kmh 29.80 in1009.1 mb - 0.00 in0.0 mm 0.00 in0.0 mm
06:45 PM 30.0°F-1.1°C 23.1°F-4.9°C 75% 2.3 mph ENE3.7 kmh ENE 3.5 mph5.6 kmh 29.80 in1009.1 mb - 0.00 in0.0 mm 0.00 in0.0 mm
06:50 PM 29.9°F-1.2°C 23.0°F-5.0°C 75% 2.3 mph ENE3.7 kmh ENE 2.3 mph3.7 kmh 29.80 in1009.1 mb - 0.00 in0.0 mm 0.00 in0.0 mm
06:55 PM 29.8°F-1.2°C 22.9°F-5.1°C 75% 3.5 mph ENE5.6 kmh ENE 3.5 mph5.6 kmh 29.80 in1009.1 mb - 0.00 in0.0 mm 0.00 in0.0 mm
07:00 PM 29.8°F-1.2°C 22.9°F-5.1°C 75% 2.3 mph ENE3.7 kmh ENE 3.5 mph5.6 kmh 29.80 in1009.1 mb - 0.00 in0.0 mm 0.00 in0.0 mm
07:10 PM 29.7°F-1.3°C 22.4°F-5.3°C 74% 3.5 mph ENE5.6 kmh ENE 4.6 mph7.4 kmh 29.80 in1009.1 mb - 0.00 in0.0 mm 0.00 in0.0 mm
07:15 PM 29.7°F-1.3°C 22.4°F-5.3°C 74% 2.3 mph ENE3.7 kmh ENE 2.3 mph3.7 kmh 29.79 in1008.8 mb - 0.00 in0.0 mm 0.00 in0.0 mm
07:20 PM 29.7°F-1.3°C 22.4°F-5.3°C 74% 1.2 mph NE1.9 kmh NE 2.3 mph3.7 kmh 29.79 in1008.8 mb - 0.00 in0.0 mm 0.00 in0.0 mm
07:25 PM 29.7°F-1.3°C 22.4°F-5.3°C 74% 2.3 mph NNE3.7 kmh NNE 2.3 mph3.7 kmh 29.79 in1008.8 mb - 0.00 in0.0 mm 0.00 in0.0 mm
07:30 PM 29.7°F-1.3°C 22.4°F-5.3°C 74% 2.3 mph E3.7 kmh E 2.3 mph3.7 kmh 29.80 in1009.1 mb - 0.00 in0.0 mm 0.00 in0.0 mm
07:35 PM 29.7°F-1.3°C 22.4°F-5.3°C 74% 3.5 mph ENE5.6 kmh ENE 3.5 mph5.6 kmh 29.80 in1009.1 mb - 0.00 in0.0 mm 0.00 in0.0 mm
07:40 PM 29.7°F-1.3°C 22.4°F-5.3°C 74% 2.3 mph NE3.7 kmh NE 2.3 mph3.7 kmh 29.80 in1009.1 mb - 0.00 in0.0 mm 0.00 in0.0 mm
07:45 PM 29.5°F-1.4°C 22.3°F-5.4°C 74% 1.2 mph NE1.9 kmh NE 2.3 mph3.7 kmh 29.79 in1008.8 mb - 0.00 in0.0 mm 0.00 in0.0 mm
07:50 PM 29.6°F-1.3°C 22.3°F-5.4°C 74% 2.3 mph NE3.7 kmh NE 2.3 mph3.7 kmh 29.79 in1008.8 mb - 0.00 in0.0 mm 0.00 in0.0 mm
07:55 PM 29.5°F-1.4°C 22.2°F-5.4°C 74% 1.2 mph ENE1.9 kmh ENE 2.3 mph3.7 kmh 29.79 in1008.8 mb - 0.00 in0.0 mm 0.00 in0.0 mm
08:00 PM 29.5°F-1.4°C 22.2°F-5.4°C 74% 2.3 mph NNE3.7 kmh NNE 3.5 mph5.6 kmh 29.80 in1009.1 mb - 0.00 in0.0 mm 0.00 in0.0 mm
08:10 PM 29.5°F-1.4°C 22.2°F-5.4°C 74% 2.3 mph NE3.7 kmh NE 3.5 mph5.6 kmh 29.80 in1009.1 mb - 0.00 in0.0 mm 0.00 in0.0 mm
08:15 PM 29.5°F-1.4°C 22.2°F-5.4°C 74% 2.3 mph NE3.7 kmh NE 3.5 mph5.6 kmh 29.79 in1008.8 mb - 0.00 in0.0 mm 0.00 in0.0 mm
08:20 PM 29.5°F-1.4°C 22.2°F-5.4°C 74% 2.3 mph ENE3.7 kmh ENE 2.3 mph3.7 kmh 29.79 in1008.8 mb - 0.00 in0.0 mm 0.00 in0.0 mm
08:25 PM 29.5°F-1.4°C 22.2°F-5.4°C 74% 2.3 mph NE3.7 kmh NE 2.3 mph3.7 kmh 29.79 in1008.8 mb - 0.00 in0.0 mm 0.00 in0.0 mm
08:30 PM 29.3°F-1.5°C 22.0°F-5.6°C 74% 2.3 mph ENE3.7 kmh ENE 3.5 mph5.6 kmh 29.79 in1008.8 mb - 0.00 in0.0 mm 0.00 in0.0 mm
08:35 PM 29.3°F-1.5°C 22.0°F-5.6°C 74% 2.3 mph E3.7 kmh E 3.5 mph5.6 kmh 29.79 in1008.8 mb - 0.00 in0.0 mm 0.00 in0.0 mm
08:40 PM 29.3°F-1.5°C 22.0°F-5.6°C 74% 2.3 mph ENE3.7 kmh ENE 3.5 mph5.6 kmh 29.79 in1008.8 mb - 0.00 in0.0 mm 0.00 in0.0 mm
08:45 PM 29.3°F-1.5°C 22.4°F-5.3°C 75% 2.3 mph ENE3.7 kmh ENE 2.3 mph3.7 kmh 29.79 in1008.8 mb - 0.00 in0.0 mm 0.00 in0.0 mm
08:50 PM 29.3°F-1.5°C 22.4°F-5.3°C 75% 2.3 mph NE3.7 kmh NE 3.5 mph5.6 kmh 29.79 in1008.8 mb - 0.00 in0.0 mm 0.00 in0.0 mm
08:55 PM 29.1°F-1.6°C 22.2°F-5.4°C 75% 2.3 mph NNE3.7 kmh NNE 2.3 mph3.7 kmh 29.79 in1008.8 mb - 0.00 in0.0 mm 0.00 in0.0 mm
09:00 PM 29.1°F-1.6°C 22.2°F-5.4°C 75% 2.3 mph NNE3.7 kmh NNE 2.3 mph3.7 kmh 29.78 in1008.5 mb - 0.00 in0.0 mm 0.00 in0.0 mm
09:10 PM 29.1°F-1.6°C 22.2°F-5.4°C 75% 2.3 mph NE3.7 kmh NE 3.5 mph5.6 kmh 29.78 in1008.5 mb - 0.00 in0.0 mm 0.00 in0.0 mm
09:15 PM 29.1°F-1.6°C 22.2°F-5.4°C 75% 3.5 mph NE5.6 kmh NE 3.5 mph5.6 kmh 29.77 in1008.1 mb - 0.00 in0.0 mm 0.00 in0.0 mm
09:20 PM 28.9°F-1.7°C 22.0°F-5.6°C 75% 2.3 mph NE3.7 kmh NE 3.5 mph5.6 kmh 29.77 in1008.1 mb - 0.00 in0.0 mm 0.00 in0.0 mm
09:25 PM 28.9°F-1.7°C 22.0°F-5.6°C 75% 3.5 mph ENE5.6 kmh ENE 3.5 mph5.6 kmh 29.77 in1008.1 mb - 0.00 in0.0 mm 0.00 in0.0 mm
09:30 PM 28.9°F-1.7°C 22.0°F-5.6°C 75% 2.3 mph NE3.7 kmh NE 3.5 mph5.6 kmh 29.77 in1008.1 mb - 0.00 in0.0 mm 0.00 in0.0 mm
09:35 PM 28.9°F-1.7°C 22.0°F-5.6°C 75% 2.3 mph NE3.7 kmh NE 3.5 mph5.6 kmh 29.77 in1008.1 mb - 0.00 in0.0 mm 0.00 in0.0 mm
09:40 PM 28.8°F-1.8°C 21.8°F-5.7°C 75% 3.5 mph ENE5.6 kmh ENE 4.6 mph7.4 kmh 29.77 in1008.1 mb - 0.00 in0.0 mm 0.00 in0.0 mm
09:45 PM 28.8°F-1.8°C 21.6°F-5.8°C 74% 2.3 mph NE3.7 kmh NE 2.3 mph3.7 kmh 29.77 in1008.1 mb - 0.00 in0.0 mm 0.00 in0.0 mm
09:50 PM 28.8°F-1.8°C 21.5°F-5.8°C 74% 2.3 mph E3.7 kmh E 2.3 mph3.7 kmh 29.77 in1008.1 mb - 0.00 in0.0 mm 0.00 in0.0 mm
09:55 PM 28.8°F-1.8°C 21.5°F-5.8°C 74% 1.2 mph NE1.9 kmh NE 1.2 mph1.9 kmh 29.77 in1008.1 mb - 0.00 in0.0 mm 0.00 in0.0 mm
10:00 PM 28.8°F-1.8°C 21.5°F-5.8°C 74% 1.2 mph NE1.9 kmh NE 3.5 mph5.6 kmh 29.78 in1008.5 mb - 0.00 in0.0 mm 0.00 in0.0 mm
10:10 PM 28.8°F-1.8°C 21.5°F-5.8°C 74% 2.3 mph NNE3.7 kmh NNE 3.5 mph5.6 kmh 29.78 in1008.5 mb - 0.00 in0.0 mm 0.00 in0.0 mm
10:15 PM 28.8°F-1.8°C 21.5°F-5.8°C 74% 2.3 mph NE3.7 kmh NE 2.3 mph3.7 kmh 29.77 in1008.1 mb - 0.00 in0.0 mm 0.00 in0.0 mm
10:20 PM 28.6°F-1.9°C 21.3°F-5.9°C 74% 2.3 mph NE3.7 kmh NE 3.5 mph5.6 kmh 29.77 in1008.1 mb - 0.00 in0.0 mm 0.00 in0.0 mm
10:25 PM 28.6°F-1.9°C 21.3°F-5.9°C 74% 2.3 mph ENE3.7 kmh ENE 2.3 mph3.7 kmh 29.77 in1008.1 mb - 0.00 in0.0 mm 0.00 in0.0 mm
10:30 PM 28.6°F-1.9°C 21.3°F-5.9°C 74% 2.3 mph NE3.7 kmh NE 2.3 mph3.7 kmh 29.77 in1008.1 mb - 0.00 in0.0 mm 0.00 in0.0 mm
10:35 PM 28.6°F-1.9°C 21.3°F-5.9°C 74% 2.3 mph NE3.7 kmh NE 2.3 mph3.7 kmh 29.77 in1008.1 mb - 0.00 in0.0 mm 0.00 in0.0 mm
10:40 PM 28.6°F-1.9°C 21.3°F-5.9°C 74% 2.3 mph NE3.7 kmh NE 2.3 mph3.7 kmh 29.77 in1008.1 mb - 0.00 in0.0 mm 0.00 in0.0 mm
10:45 PM 28.6°F-1.9°C 21.3°F-5.9°C 74% 2.3 mph NE3.7 kmh NE 2.3 mph3.7 kmh 29.77 in1008.1 mb - 0.00 in0.0 mm 0.00 in0.0 mm
10:50 PM 28.6°F-1.9°C 21.3°F-5.9°C 74% 2.3 mph ENE3.7 kmh ENE 3.5 mph5.6 kmh 29.77 in1008.1 mb - 0.00 in0.0 mm 0.00 in0.0 mm
10:55 PM 28.6°F-1.9°C 21.3°F-5.9°C 74% 2.3 mph NE3.7 kmh NE 3.5 mph5.6 kmh 29.77 in1008.1 mb - 0.00 in0.0 mm 0.00 in0.0 mm
11:00 PM 28.6°F-1.9°C 21.3°F-5.9°C 74% 2.3 mph NE3.7 kmh NE 2.3 mph3.7 kmh 29.77 in1008.1 mb - 0.00 in0.0 mm 0.00 in0.0 mm
11:10 PM 28.6°F-1.9°C 21.7°F-5.7°C 75% 2.3 mph NE3.7 kmh NE 2.3 mph3.7 kmh 29.77 in1008.1 mb - 0.00 in0.0 mm 0.00 in0.0 mm
11:15 PM 28.6°F-1.9°C 21.7°F-5.7°C 75% 3.5 mph ENE5.6 kmh ENE 3.5 mph5.6 kmh 29.77 in1008.1 mb - 0.00 in0.0 mm 0.00 in0.0 mm
11:20 PM 28.6°F-1.9°C 21.7°F-5.7°C 75% 3.5 mph ENE5.6 kmh ENE 3.5 mph5.6 kmh 29.77 in1008.1 mb - 0.00 in0.0 mm 0.00 in0.0 mm
11:25 PM 28.6°F-1.9°C 21.7°F-5.7°C 75% 2.3 mph NE3.7 kmh NE 2.3 mph3.7 kmh 29.77 in1008.1 mb - 0.00 in0.0 mm 0.00 in0.0 mm
11:30 PM 28.6°F-1.9°C 21.7°F-5.7°C 75% 3.5 mph NE5.6 kmh NE 3.5 mph5.6 kmh 29.77 in1008.1 mb - 0.00 in0.0 mm 0.00 in0.0 mm
11:35 PM 28.6°F-1.9°C 21.7°F-5.7°C 75% 2.3 mph ENE3.7 kmh ENE 3.5 mph5.6 kmh 29.77 in1008.1 mb - 0.00 in0.0 mm 0.00 in0.0 mm
11:40 PM 28.6°F-1.9°C 21.7°F-5.7°C 75% 3.5 mph NE5.6 kmh NE 3.5 mph5.6 kmh 29.77 in1008.1 mb - 0.00 in0.0 mm 0.00 in0.0 mm
11:45 PM 28.5°F-1.9°C 21.6°F-5.8°C 75% 2.3 mph ENE3.7 kmh ENE 2.3 mph3.7 kmh 29.77 in1008.1 mb - 0.00 in0.0 mm 0.00 in0.0 mm
11:50 PM 28.4°F-2.0°C 21.5°F-5.8°C 75% 3.5 mph ENE5.6 kmh ENE 3.5 mph5.6 kmh 29.77 in1008.1 mb - 0.00 in0.0 mm 0.00 in0.0 mm
11:55 PM 28.4°F-2.0°C 21.5°F-5.8°C 75% 2.3 mph NE3.7 kmh NE 3.5 mph5.6 kmh 29.77 in1008.1 mb - 0.00 in0.0 mm 0.00 in0.0 mm